Terminal Aerodrome Forecast
Issued by NWS

Home | Current Version | Previous Version | Graphics & Text | Print | Product List | Glossary On
Versions: 1 2 3 4 5 6 7 8 9 10 11 12 13 14 15 16 17 18 19 20 21
279
FTUS43 KICT 281355 AAA
TAFRSL
TAF AMD
KRSL 281355Z 2814/2912 12005KT 2SM BR BKN003 OVC020
     FM281500 11008KT 6SM BR OVC015
     FM281700 10013KT P6SM OVC020
     FM282000 09016G24KT P6SM VCSH OVC020
     FM282300 08018KT 6SM SHRA OVC010
     FM290300 07017G25KT 2SM SHRA OVC003=

USA.gov is the U.S. government's official web portal to all federal, state and local government web resources and services.